AIC64E VOBL-VABB
Flight info
| Callsign | AIC64E |
|---|---|
| Flight time | 1h 32m |
| Altitude | 34000 |
| Route | VAGPU7B VAGPU Q8 AGELA MOLGO2A |
| Aircraft | A321/M-SDE3FGHIRWY/LB1 |
Departure
| Time | 2026-04-30 09:52 |
|---|---|
| Airport | Kempegowda International Airport Bengaluru (VOBL) |
Arrival
| Time | 2026-04-30 11:25 |
|---|---|
| Airport | Chhatrapati Shivaji Maharaj International Airport (VABB) |
| Time | Latitude | Longitude | Altitude | Speed | Heading |
|---|---|---|---|---|---|
| 2026-04-30 09:16 | 13.20173 | 77.70838 | 3012 ft | 0 kts | 180° |
| 2026-04-30 09:19 | 13.20174 | 77.70838 | 3011 ft | 0 kts | 180° |
| 2026-04-30 09:36 | 13.20176 | 77.70839 | 3011 ft | 0 kts | 180° |
| 2026-04-30 09:36 | 13.20202 | 77.70839 | 3018 ft | 2 kts | 180° |
| 2026-04-30 09:36 | 13.20226 | 77.70837 | 3015 ft | 3 kts | 158° |
| 2026-04-30 09:36 | 13.20243 | 77.70823 | 3011 ft | 3 kts | 103° |
| 2026-04-30 09:37 | 13.20244 | 77.70796 | 3011 ft | 3 kts | 86° |
| 2026-04-30 09:37 | 13.20244 | 77.70786 | 3011 ft | 0 kts | 90° |
| 2026-04-30 09:44 | 13.20244 | 77.70790 | 3011 ft | 3 kts | 90° |
| 2026-04-30 09:44 | 13.20247 | 77.70839 | 3011 ft | 11 kts | 82° |
| 2026-04-30 09:45 | 13.20255 | 77.70895 | 3011 ft | 10 kts | 82° |
| 2026-04-30 09:45 | 13.20263 | 77.70964 | 3011 ft | 8 kts | 90° |
| 2026-04-30 09:45 | 13.20262 | 77.71019 | 3011 ft | 6 kts | 90° |
| 2026-04-30 09:45 | 13.20262 | 77.71029 | 3011 ft | 5 kts | 90° |
| 2026-04-30 09:46 | 13.20262 | 77.71051 | 3011 ft | 0 kts | 90° |
| 2026-04-30 09:46 | 13.20262 | 77.71059 | 3011 ft | 4 kts | 90° |
| 2026-04-30 09:46 | 13.20281 | 77.71128 | 3011 ft | 6 kts | 77° |
| 2026-04-30 09:47 | 13.20265 | 77.71223 | 3014 ft | 11 kts | 110° |
| 2026-04-30 09:47 | 13.20257 | 77.71261 | 3011 ft | 14 kts | 90° |
| 2026-04-30 09:47 | 13.20258 | 77.71440 | 3011 ft | 14 kts | 90° |
| 2026-04-30 09:48 | 13.20259 | 77.71546 | 3011 ft | 12 kts | 88° |
| 2026-04-30 09:48 | 13.20260 | 77.71615 | 3011 ft | 13 kts | 90° |
| 2026-04-30 09:48 | 13.20259 | 77.71690 | 3011 ft | 15 kts | 90° |
| 2026-04-30 09:48 | 13.20266 | 77.71772 | 3013 ft | 7 kts | 59° |
| 2026-04-30 09:49 | 13.20332 | 77.71787 | 3011 ft | 12 kts | 358° |
| 2026-04-30 09:49 | 13.20455 | 77.71789 | 3012 ft | 13 kts | 359° |
| 2026-04-30 09:49 | 13.20521 | 77.71820 | 3012 ft | 14 kts | 71° |
| 2026-04-30 09:49 | 13.20520 | 77.71949 | 3012 ft | 19 kts | 91° |
| 2026-04-30 09:50 | 13.20519 | 77.72028 | 3012 ft | 22 kts | 90° |
| 2026-04-30 09:50 | 13.20524 | 77.72187 | 3012 ft | 7 kts | 61° |
| 2026-04-30 09:50 | 13.20564 | 77.72201 | 3012 ft | 5 kts | 0° |
| 2026-04-30 09:50 | 13.20594 | 77.72202 | 3012 ft | 3 kts | 0° |
| 2026-04-30 09:51 | 13.20618 | 77.72202 | 3012 ft | 8 kts | 0° |
| 2026-04-30 09:51 | 13.20688 | 77.72112 | 3011 ft | 21 kts | 270° |
| 2026-04-30 09:51 | 13.20689 | 77.71959 | 3011 ft | 45 kts | 269° |
| 2026-04-30 09:51 | 13.20694 | 77.71330 | 3011 ft | 113 kts | 271° |
| 2026-04-30 09:52 | 13.20711 | 77.70121 | 3012 ft | 167 kts | 271° |
| 2026-04-30 09:52 | 13.20714 | 77.68902 | 3220 ft | 184 kts | 269° |
| 2026-04-30 09:52 | 13.20906 | 77.67868 | 3833 ft | 176 kts | 296° |
| 2026-04-30 09:52 | 13.21822 | 77.66665 | 4554 ft | 181 kts | 307° |
| 2026-04-30 09:53 | 13.22392 | 77.65810 | 4774 ft | 198 kts | 302° |
| 2026-04-30 09:53 | 13.23115 | 77.64563 | 4927 ft | 213 kts | 300° |
| 2026-04-30 09:53 | 13.23841 | 77.63264 | 5039 ft | 226 kts | 300° |
| 2026-04-30 09:53 | 13.24674 | 77.61775 | 5141 ft | 244 kts | 301° |
| 2026-04-30 09:54 | 13.25729 | 77.59910 | 5313 ft | 267 kts | 301° |
| 2026-04-30 09:54 | 13.26591 | 77.58398 | 5749 ft | 273 kts | 301° |
| 2026-04-30 09:54 | 13.27610 | 77.56619 | 6323 ft | 276 kts | 301° |
| 2026-04-30 09:54 | 13.28697 | 77.54736 | 6927 ft | 279 kts | 301° |
| 2026-04-30 09:55 | 13.29934 | 77.53219 | 7477 ft | 284 kts | 324° |
| 2026-04-30 09:55 | 13.31754 | 77.52424 | 8022 ft | 286 kts | 353° |
| 2026-04-30 09:55 | 13.33088 | 77.52436 | 8360 ft | 288 kts | 12° |
| 2026-04-30 09:55 | 13.35064 | 77.53303 | 8921 ft | 290 kts | 31° |
| 2026-04-30 09:56 | 13.36857 | 77.54388 | 9498 ft | 293 kts | 31° |
| 2026-04-30 09:56 | 13.38675 | 77.55493 | 10040 ft | 296 kts | 31° |
| 2026-04-30 09:56 | 13.40839 | 77.56807 | 10234 ft | 316 kts | 31° |
| 2026-04-30 09:56 | 13.42460 | 77.57788 | 10334 ft | 329 kts | 31° |
| 2026-04-30 09:57 | 13.44704 | 77.59142 | 10486 ft | 346 kts | 31° |
| 2026-04-30 09:57 | 13.46871 | 77.60450 | 10841 ft | 351 kts | 31° |
| 2026-04-30 09:57 | 13.49067 | 77.61689 | 10952 ft | 353 kts | 23° |
| 2026-04-30 09:57 | 13.51242 | 77.62354 | 10965 ft | 353 kts | 9° |
| 2026-04-30 09:58 | 13.53245 | 77.62470 | 10982 ft | 355 kts | 356° |
| 2026-04-30 09:58 | 13.55768 | 77.61947 | 11454 ft | 358 kts | 341° |
| 2026-04-30 09:58 | 13.58429 | 77.60699 | 12044 ft | 361 kts | 334° |
| 2026-04-30 09:58 | 13.59974 | 77.59915 | 12389 ft | 362 kts | 334° |
| 2026-04-30 09:59 | 13.64989 | 77.57364 | 13502 ft | 366 kts | 334° |
| 2026-04-30 09:59 | 13.69461 | 77.55085 | 14333 ft | 371 kts | 334° |
| 2026-04-30 10:00 | 13.74371 | 77.52578 | 15234 ft | 374 kts | 334° |
| 2026-04-30 10:00 | 13.76767 | 77.51353 | 15661 ft | 376 kts | 334° |
| 2026-04-30 10:01 | 13.80998 | 77.49193 | 16411 ft | 379 kts | 334° |
| 2026-04-30 10:01 | 13.83360 | 77.47988 | 16809 ft | 381 kts | 334° |
| 2026-04-30 10:01 | 13.85830 | 77.46726 | 17217 ft | 383 kts | 334° |
| 2026-04-30 10:02 | 13.91101 | 77.44034 | 18063 ft | 387 kts | 334° |
| 2026-04-30 10:02 | 13.93570 | 77.42772 | 18408 ft | 388 kts | 334° |
| 2026-04-30 10:02 | 13.95222 | 77.41928 | 18627 ft | 389 kts | 334° |
| 2026-04-30 10:02 | 13.97705 | 77.40657 | 18942 ft | 391 kts | 334° |
| 2026-04-30 10:03 | 14.00168 | 77.39394 | 19240 ft | 393 kts | 334° |
| 2026-04-30 10:03 | 14.02678 | 77.38108 | 19540 ft | 394 kts | 333° |
| 2026-04-30 10:03 | 14.05186 | 77.36824 | 19830 ft | 396 kts | 333° |
| 2026-04-30 10:03 | 14.07724 | 77.35524 | 20107 ft | 397 kts | 333° |
| 2026-04-30 10:04 | 14.10273 | 77.34219 | 20376 ft | 399 kts | 333° |
| 2026-04-30 10:04 | 14.12801 | 77.32926 | 20642 ft | 401 kts | 333° |
| 2026-04-30 10:04 | 14.15305 | 77.31645 | 20900 ft | 403 kts | 333° |
| 2026-04-30 10:04 | 14.17963 | 77.30285 | 21175 ft | 405 kts | 333° |
| 2026-04-30 10:05 | 14.19850 | 77.29318 | 21367 ft | 406 kts | 332° |
| 2026-04-30 10:05 | 14.22441 | 77.27988 | 21626 ft | 408 kts | 332° |
| 2026-04-30 10:05 | 14.25092 | 77.26626 | 21895 ft | 410 kts | 332° |
| 2026-04-30 10:05 | 14.27646 | 77.25313 | 22160 ft | 411 kts | 332° |
| 2026-04-30 10:06 | 14.30321 | 77.23942 | 22436 ft | 413 kts | 332° |
| 2026-04-30 10:06 | 14.32976 | 77.22580 | 22720 ft | 415 kts | 332° |
| 2026-04-30 10:06 | 14.35605 | 77.21235 | 22986 ft | 417 kts | 332° |
| 2026-04-30 10:06 | 14.38173 | 77.19920 | 23250 ft | 419 kts | 332° |
| 2026-04-30 10:07 | 14.40895 | 77.18524 | 23521 ft | 421 kts | 332° |
| 2026-04-30 10:07 | 14.43488 | 77.17195 | 23739 ft | 422 kts | 332° |
| 2026-04-30 10:07 | 14.46267 | 77.15769 | 23991 ft | 423 kts | 332° |
| 2026-04-30 10:07 | 14.48906 | 77.14414 | 24237 ft | 425 kts | 332° |
| 2026-04-30 10:08 | 14.51659 | 77.12996 | 24487 ft | 426 kts | 332° |
| 2026-04-30 10:08 | 14.54349 | 77.11608 | 24738 ft | 427 kts | 332° |
| 2026-04-30 10:08 | 14.57116 | 77.10181 | 25002 ft | 428 kts | 332° |
| 2026-04-30 10:08 | 14.58923 | 77.09262 | 25157 ft | 428 kts | 334° |
| 2026-04-30 10:09 | 14.61721 | 77.08160 | 25384 ft | 430 kts | 339° |
| 2026-04-30 10:09 | 14.64617 | 77.07104 | 25613 ft | 431 kts | 339° |
| 2026-04-30 10:09 | 14.67465 | 77.06069 | 25844 ft | 432 kts | 339° |
| 2026-04-30 10:09 | 14.70346 | 77.05021 | 26063 ft | 434 kts | 339° |
| 2026-04-30 10:10 | 14.73197 | 77.03981 | 26278 ft | 435 kts | 339° |
| 2026-04-30 10:10 | 14.75401 | 77.03178 | 26437 ft | 436 kts | 339° |
| 2026-04-30 10:10 | 14.77264 | 77.02500 | 26576 ft | 436 kts | 339° |
| 2026-04-30 10:10 | 14.80166 | 77.01441 | 26782 ft | 438 kts | 339° |
| 2026-04-30 10:11 | 14.83116 | 77.00362 | 26995 ft | 439 kts | 339° |
| 2026-04-30 10:11 | 14.85994 | 76.99309 | 27196 ft | 440 kts | 339° |
| 2026-04-30 10:11 | 14.88879 | 76.98253 | 27400 ft | 441 kts | 339° |
| 2026-04-30 10:11 | 14.91983 | 76.97116 | 27617 ft | 442 kts | 339° |
| 2026-04-30 10:12 | 14.94920 | 76.96040 | 27810 ft | 443 kts | 339° |
| 2026-04-30 10:12 | 14.97952 | 76.94900 | 28007 ft | 444 kts | 335° |
| 2026-04-30 10:12 | 15.00622 | 76.93283 | 28181 ft | 442 kts | 320° |
| 2026-04-30 10:12 | 15.02923 | 76.91180 | 28354 ft | 443 kts | 317° |
| 2026-04-30 10:13 | 15.04397 | 76.89816 | 28463 ft | 444 kts | 318° |
| 2026-04-30 10:13 | 15.06860 | 76.87568 | 28653 ft | 445 kts | 318° |
| 2026-04-30 10:13 | 15.09159 | 76.85492 | 28807 ft | 446 kts | 318° |
| 2026-04-30 10:13 | 15.11696 | 76.83218 | 29002 ft | 447 kts | 318° |
| 2026-04-30 10:14 | 15.14279 | 76.80901 | 29180 ft | 448 kts | 318° |
| 2026-04-30 10:14 | 15.16731 | 76.78692 | 29312 ft | 449 kts | 318° |
| 2026-04-30 10:14 | 15.20917 | 76.74888 | 29560 ft | 450 kts | 318° |
| 2026-04-30 10:15 | 15.23267 | 76.72742 | 29705 ft | 451 kts | 318° |
| 2026-04-30 10:15 | 15.25630 | 76.70589 | 29837 ft | 451 kts | 318° |
| 2026-04-30 10:15 | 15.28024 | 76.68412 | 29967 ft | 452 kts | 318° |
| 2026-04-30 10:15 | 15.30442 | 76.66214 | 30079 ft | 452 kts | 318° |
| 2026-04-30 10:16 | 15.33109 | 76.63789 | 30202 ft | 453 kts | 318° |
| 2026-04-30 10:16 | 15.35537 | 76.61575 | 30305 ft | 453 kts | 318° |
| 2026-04-30 10:16 | 15.37988 | 76.59378 | 30436 ft | 453 kts | 319° |
| 2026-04-30 10:17 | 15.42910 | 76.55085 | 30693 ft | 453 kts | 319° |
| 2026-04-30 10:17 | 15.47045 | 76.51472 | 30910 ft | 453 kts | 319° |
| 2026-04-30 10:17 | 15.49485 | 76.49336 | 31045 ft | 453 kts | 319° |
| 2026-04-30 10:18 | 15.51952 | 76.47176 | 31187 ft | 452 kts | 319° |
| 2026-04-30 10:18 | 15.54423 | 76.45009 | 31319 ft | 452 kts | 319° |
| 2026-04-30 10:18 | 15.56821 | 76.42901 | 31465 ft | 452 kts | 319° |
| 2026-04-30 10:19 | 15.61713 | 76.38596 | 31765 ft | 451 kts | 319° |
| 2026-04-30 10:19 | 15.64127 | 76.36467 | 31901 ft | 451 kts | 319° |
| 2026-04-30 10:19 | 15.66536 | 76.34339 | 32052 ft | 451 kts | 319° |
| 2026-04-30 10:19 | 15.68926 | 76.32225 | 32201 ft | 451 kts | 319° |
| 2026-04-30 10:20 | 15.71458 | 76.29985 | 32352 ft | 451 kts | 319° |
| 2026-04-30 10:20 | 15.76311 | 76.25676 | 32652 ft | 450 kts | 319° |
| 2026-04-30 10:20 | 15.78721 | 76.23533 | 32807 ft | 450 kts | 319° |
| 2026-04-30 10:21 | 15.82831 | 76.19871 | 33046 ft | 450 kts | 319° |
| 2026-04-30 10:21 | 15.85199 | 76.17755 | 33191 ft | 449 kts | 319° |
| 2026-04-30 10:21 | 15.87626 | 76.15584 | 33349 ft | 449 kts | 319° |
| 2026-04-30 10:22 | 15.90031 | 76.13429 | 33510 ft | 449 kts | 319° |
| 2026-04-30 10:22 | 15.92358 | 76.11239 | 33652 ft | 448 kts | 313° |
| 2026-04-30 10:22 | 15.94499 | 76.08625 | 33812 ft | 448 kts | 309° |
| 2026-04-30 10:22 | 15.96495 | 76.06021 | 33850 ft | 443 kts | 309° |
| 2026-04-30 10:23 | 16.00844 | 76.00983 | 33857 ft | 439 kts | 317° |
| 2026-04-30 10:23 | 16.04993 | 75.97260 | 33854 ft | 438 kts | 321° |
| 2026-04-30 10:24 | 16.09871 | 75.93128 | 33857 ft | 438 kts | 320° |
| 2026-04-30 10:24 | 16.14734 | 75.88796 | 33860 ft | 438 kts | 319° |
| 2026-04-30 10:25 | 16.19332 | 75.84549 | 33862 ft | 438 kts | 319° |
| 2026-04-30 10:25 | 16.23184 | 75.80987 | 33872 ft | 438 kts | 319° |
| 2026-04-30 10:26 | 16.27793 | 75.76753 | 33887 ft | 439 kts | 319° |
| 2026-04-30 10:26 | 16.32412 | 75.72530 | 33880 ft | 438 kts | 319° |
| 2026-04-30 10:27 | 16.37090 | 75.68246 | 33890 ft | 438 kts | 319° |
| 2026-04-30 10:27 | 16.41735 | 75.63993 | 33889 ft | 438 kts | 319° |
| 2026-04-30 10:28 | 16.46306 | 75.59793 | 33888 ft | 438 kts | 319° |
| 2026-04-30 10:28 | 16.50930 | 75.55543 | 33893 ft | 437 kts | 319° |
| 2026-04-30 10:29 | 16.55504 | 75.51334 | 33890 ft | 437 kts | 319° |
| 2026-04-30 10:29 | 16.60055 | 75.47124 | 33890 ft | 437 kts | 315° |
| 2026-04-30 10:30 | 16.64054 | 75.42112 | 33898 ft | 437 kts | 309° |
| 2026-04-30 10:30 | 16.67844 | 75.37100 | 33886 ft | 437 kts | 309° |
| 2026-04-30 10:31 | 16.71638 | 75.32096 | 33889 ft | 436 kts | 309° |
| 2026-04-30 10:31 | 16.75429 | 75.27087 | 33885 ft | 436 kts | 309° |
| 2026-04-30 10:32 | 16.79210 | 75.22082 | 33884 ft | 436 kts | 309° |
| 2026-04-30 10:32 | 16.82971 | 75.17104 | 33893 ft | 437 kts | 309° |
| 2026-04-30 10:33 | 16.86152 | 75.12892 | 33891 ft | 437 kts | 309° |
| 2026-04-30 10:33 | 16.89964 | 75.07835 | 33890 ft | 437 kts | 308° |
| 2026-04-30 10:34 | 16.93778 | 75.02764 | 33897 ft | 437 kts | 308° |
| 2026-04-30 10:34 | 16.97567 | 74.97738 | 33900 ft | 437 kts | 309° |
| 2026-04-30 10:35 | 17.01299 | 74.92777 | 33900 ft | 437 kts | 308° |
| 2026-04-30 10:35 | 17.05149 | 74.87651 | 33903 ft | 437 kts | 308° |
| 2026-04-30 10:36 | 17.08907 | 74.82665 | 33899 ft | 436 kts | 309° |
| 2026-04-30 10:36 | 17.12833 | 74.77444 | 33896 ft | 436 kts | 308° |
| 2026-04-30 10:37 | 17.16616 | 74.72401 | 33898 ft | 436 kts | 308° |
| 2026-04-30 10:37 | 17.19933 | 74.67977 | 33896 ft | 436 kts | 308° |
| 2026-04-30 10:38 | 17.23811 | 74.62795 | 33899 ft | 436 kts | 308° |
| 2026-04-30 10:38 | 17.27603 | 74.57728 | 33893 ft | 436 kts | 308° |
| 2026-04-30 10:39 | 17.31553 | 74.52455 | 33894 ft | 436 kts | 308° |
| 2026-04-30 10:39 | 17.35363 | 74.47364 | 33898 ft | 435 kts | 308° |
| 2026-04-30 10:40 | 17.38479 | 74.43191 | 33896 ft | 435 kts | 308° |
| 2026-04-30 10:40 | 17.42260 | 74.38126 | 33893 ft | 434 kts | 308° |
| 2026-04-30 10:41 | 17.46130 | 74.32933 | 33889 ft | 434 kts | 308° |
| 2026-04-30 10:41 | 17.49874 | 74.27907 | 33893 ft | 434 kts | 308° |
| 2026-04-30 10:42 | 17.53706 | 74.22757 | 33900 ft | 434 kts | 308° |
| 2026-04-30 10:42 | 17.56932 | 74.18431 | 33898 ft | 434 kts | 308° |
| 2026-04-30 10:43 | 17.60808 | 74.13232 | 33902 ft | 434 kts | 308° |
| 2026-04-30 10:43 | 17.64622 | 74.08106 | 33905 ft | 434 kts | 308° |
| 2026-04-30 10:44 | 17.68377 | 74.03045 | 33873 ft | 437 kts | 308° |
| 2026-04-30 10:44 | 17.72196 | 73.97895 | 33384 ft | 437 kts | 308° |
| 2026-04-30 10:45 | 17.74215 | 73.95169 | 32094 ft | 449 kts | 308° |
| 2026-04-30 10:45 | 17.76203 | 73.92485 | 31315 ft | 446 kts | 308° |
| 2026-04-30 10:45 | 17.78099 | 73.89927 | 30494 ft | 440 kts | 308° |
| 2026-04-30 10:45 | 17.79545 | 73.87977 | 29886 ft | 435 kts | 308° |
| 2026-04-30 10:46 | 17.81576 | 73.85240 | 28917 ft | 427 kts | 308° |
| 2026-04-30 10:46 | 17.83514 | 73.82622 | 28297 ft | 414 kts | 308° |
| 2026-04-30 10:46 | 17.85282 | 73.80230 | 27773 ft | 401 kts | 308° |
| 2026-04-30 10:46 | 17.86971 | 73.77945 | 27277 ft | 389 kts | 308° |
| 2026-04-30 10:47 | 17.88635 | 73.75690 | 26791 ft | 382 kts | 308° |
| 2026-04-30 10:47 | 17.89729 | 73.74208 | 26476 ft | 379 kts | 308° |
| 2026-04-30 10:47 | 17.91399 | 73.71948 | 25998 ft | 373 kts | 308° |
| 2026-04-30 10:47 | 17.93021 | 73.69751 | 25543 ft | 368 kts | 308° |
| 2026-04-30 10:48 | 17.94585 | 73.67630 | 25106 ft | 363 kts | 309° |
| 2026-04-30 10:48 | 17.96128 | 73.65541 | 24682 ft | 359 kts | 309° |
| 2026-04-30 10:48 | 17.97672 | 73.63451 | 24257 ft | 356 kts | 309° |
| 2026-04-30 10:48 | 17.99213 | 73.61370 | 23836 ft | 353 kts | 309° |
| 2026-04-30 10:49 | 18.00716 | 73.59339 | 23396 ft | 351 kts | 309° |
| 2026-04-30 10:49 | 18.02205 | 73.57319 | 22924 ft | 348 kts | 309° |
| 2026-04-30 10:49 | 18.03699 | 73.55289 | 22499 ft | 345 kts | 309° |
| 2026-04-30 10:49 | 18.05225 | 73.53213 | 22063 ft | 343 kts | 309° |
| 2026-04-30 10:50 | 18.06680 | 73.51237 | 21649 ft | 340 kts | 309° |
| 2026-04-30 10:50 | 18.08128 | 73.49273 | 21216 ft | 339 kts | 309° |
| 2026-04-30 10:50 | 18.09589 | 73.47291 | 20788 ft | 337 kts | 309° |
| 2026-04-30 10:50 | 18.11036 | 73.45326 | 20361 ft | 335 kts | 309° |
| 2026-04-30 10:51 | 18.12462 | 73.43389 | 19927 ft | 334 kts | 309° |
| 2026-04-30 10:51 | 18.13890 | 73.41449 | 19709 ft | 329 kts | 308° |
| 2026-04-30 10:51 | 18.15361 | 73.39593 | 19583 ft | 330 kts | 316° |
| 2026-04-30 10:51 | 18.16583 | 73.38515 | 19479 ft | 330 kts | 325° |
| 2026-04-30 10:52 | 18.18360 | 73.37497 | 19039 ft | 327 kts | 334° |
| 2026-04-30 10:52 | 18.21518 | 73.36137 | 18323 ft | 328 kts | 336° |
| 2026-04-30 10:52 | 18.23575 | 73.35215 | 17819 ft | 328 kts | 336° |
| 2026-04-30 10:52 | 18.25664 | 73.34264 | 17358 ft | 326 kts | 336° |
| 2026-04-30 10:53 | 18.27797 | 73.33290 | 16893 ft | 324 kts | 336° |
| 2026-04-30 10:53 | 18.29245 | 73.32629 | 16576 ft | 323 kts | 335° |
| 2026-04-30 10:53 | 18.31308 | 73.31689 | 16122 ft | 321 kts | 336° |
| 2026-04-30 10:53 | 18.33382 | 73.30753 | 15661 ft | 320 kts | 336° |
| 2026-04-30 10:54 | 18.35620 | 73.29872 | 15141 ft | 318 kts | 354° |
| 2026-04-30 10:54 | 18.38063 | 73.29825 | 14643 ft | 318 kts | 357° |
| 2026-04-30 10:54 | 18.40302 | 73.29358 | 14167 ft | 313 kts | 334° |
| 2026-04-30 10:54 | 18.42214 | 73.28204 | 13722 ft | 312 kts | 324° |
| 2026-04-30 10:55 | 18.44071 | 73.26904 | 13235 ft | 312 kts | 324° |
| 2026-04-30 10:55 | 18.45876 | 73.25639 | 12803 ft | 310 kts | 324° |
| 2026-04-30 10:55 | 18.47674 | 73.24387 | 12380 ft | 308 kts | 326° |
| 2026-04-30 10:55 | 18.48935 | 73.23636 | 12063 ft | 309 kts | 331° |
| 2026-04-30 10:56 | 18.50940 | 73.22660 | 11540 ft | 311 kts | 335° |
| 2026-04-30 10:56 | 18.52937 | 73.21809 | 11162 ft | 306 kts | 336° |
| 2026-04-30 10:56 | 18.54900 | 73.21003 | 10765 ft | 303 kts | 336° |
| 2026-04-30 10:56 | 18.56984 | 73.20135 | 10310 ft | 303 kts | 336° |
| 2026-04-30 10:57 | 18.58961 | 73.19287 | 9939 ft | 301 kts | 335° |
| 2026-04-30 10:57 | 18.60866 | 73.18450 | 9551 ft | 299 kts | 334° |
| 2026-04-30 10:57 | 18.62829 | 73.17576 | 9256 ft | 292 kts | 334° |
| 2026-04-30 10:57 | 18.64737 | 73.16719 | 9116 ft | 279 kts | 334° |
| 2026-04-30 10:58 | 18.66534 | 73.16023 | 8885 ft | 273 kts | 345° |
| 2026-04-30 10:58 | 18.68414 | 73.15825 | 8714 ft | 271 kts | 355° |
| 2026-04-30 10:58 | 18.70296 | 73.15781 | 8570 ft | 270 kts | 355° |
| 2026-04-30 10:58 | 18.72221 | 73.15731 | 8417 ft | 268 kts | 355° |
| 2026-04-30 10:59 | 18.74149 | 73.15682 | 7940 ft | 272 kts | 355° |
| 2026-04-30 10:59 | 18.76100 | 73.15633 | 7646 ft | 267 kts | 355° |
| 2026-04-30 10:59 | 18.78022 | 73.15584 | 7327 ft | 263 kts | 355° |
| 2026-04-30 10:59 | 18.79257 | 73.15552 | 7128 ft | 260 kts | 355° |
| 2026-04-30 11:00 | 18.81098 | 73.15501 | 6868 ft | 256 kts | 355° |
| 2026-04-30 11:00 | 18.82898 | 73.15453 | 6626 ft | 254 kts | 355° |
| 2026-04-30 11:00 | 18.84688 | 73.15407 | 6377 ft | 252 kts | 356° |
| 2026-04-30 11:00 | 18.86434 | 73.15360 | 6130 ft | 250 kts | 356° |
| 2026-04-30 11:01 | 18.88199 | 73.15310 | 5874 ft | 249 kts | 355° |
| 2026-04-30 11:01 | 18.89934 | 73.15262 | 5750 ft | 249 kts | 356° |
| 2026-04-30 11:01 | 18.91683 | 73.15209 | 5549 ft | 246 kts | 353° |
| 2026-04-30 11:01 | 18.93371 | 73.14833 | 5320 ft | 238 kts | 337° |
| 2026-04-30 11:02 | 18.94851 | 73.14105 | 5099 ft | 231 kts | 332° |
| 2026-04-30 11:02 | 18.96282 | 73.13373 | 4883 ft | 221 kts | 333° |
| 2026-04-30 11:02 | 18.97683 | 73.12660 | 4666 ft | 214 kts | 333° |
| 2026-04-30 11:02 | 18.99070 | 73.11954 | 4437 ft | 210 kts | 333° |
| 2026-04-30 11:03 | 19.00407 | 73.11275 | 4240 ft | 205 kts | 333° |
| 2026-04-30 11:03 | 19.01729 | 73.10605 | 4032 ft | 192 kts | 333° |
| 2026-04-30 11:03 | 19.02526 | 73.10199 | 3906 ft | 185 kts | 333° |
| 2026-04-30 11:04 | 19.04816 | 73.09033 | 3615 ft | 165 kts | 332° |
| 2026-04-30 11:04 | 19.05911 | 73.08477 | 3555 ft | 160 kts | 332° |
| 2026-04-30 11:04 | 19.06936 | 73.07955 | 3480 ft | 159 kts | 332° |
| 2026-04-30 11:04 | 19.07918 | 73.07401 | 3410 ft | 157 kts | 321° |
| 2026-04-30 11:05 | 19.08648 | 73.06579 | 3341 ft | 156 kts | 302° |
| 2026-04-30 11:05 | 19.09026 | 73.05482 | 3211 ft | 160 kts | 276° |
| 2026-04-30 11:05 | 19.09057 | 73.04264 | 3046 ft | 160 kts | 274° |
| 2026-04-30 11:05 | 19.09070 | 73.03065 | 2808 ft | 158 kts | 272° |
| 2026-04-30 11:06 | 19.09065 | 73.01897 | 2607 ft | 155 kts | 271° |
| 2026-04-30 11:06 | 19.09059 | 73.01150 | 2474 ft | 154 kts | 271° |
| 2026-04-30 11:06 | 19.09046 | 72.99979 | 2271 ft | 153 kts | 270° |
| 2026-04-30 11:06 | 19.09032 | 72.98805 | 2067 ft | 154 kts | 269° |
| 2026-04-30 11:07 | 19.09017 | 72.97639 | 1868 ft | 147 kts | 270° |
| 2026-04-30 11:07 | 19.09003 | 72.96548 | 1678 ft | 146 kts | 268° |
| 2026-04-30 11:07 | 19.08988 | 72.95444 | 1482 ft | 145 kts | 268° |
| 2026-04-30 11:07 | 19.08974 | 72.94372 | 1294 ft | 143 kts | 268° |
| 2026-04-30 11:08 | 19.08960 | 72.93319 | 1118 ft | 143 kts | 268° |
| 2026-04-30 11:08 | 19.08945 | 72.92161 | 924 ft | 144 kts | 267° |
| 2026-04-30 11:08 | 19.08935 | 72.91432 | 785 ft | 143 kts | 264° |
| 2026-04-30 11:08 | 19.08920 | 72.90322 | 586 ft | 142 kts | 264° |
| 2026-04-30 11:09 | 19.08901 | 72.89251 | 402 ft | 143 kts | 265° |
| 2026-04-30 11:09 | 19.08899 | 72.88091 | 222 ft | 142 kts | 262° |
| 2026-04-30 11:09 | 19.08876 | 72.86997 | 68 ft | 140 kts | 264° |
| 2026-04-30 11:09 | 19.08864 | 72.86286 | 74 ft | 139 kts | 263° |
| 2026-04-30 11:10 | 19.08862 | 72.85078 | 453 ft | 163 kts | 266° |
| 2026-04-30 11:10 | 19.08860 | 72.83831 | 938 ft | 173 kts | 268° |
| 2026-04-30 11:10 | 19.08664 | 72.82417 | 1466 ft | 176 kts | 246° |
| 2026-04-30 11:10 | 19.07811 | 72.81414 | 1943 ft | 181 kts | 213° |
| 2026-04-30 11:11 | 19.06638 | 72.80750 | 2144 ft | 196 kts | 219° |
| 2026-04-30 11:11 | 19.05854 | 72.79504 | 2273 ft | 209 kts | 255° |
| 2026-04-30 11:11 | 19.05555 | 72.77942 | 2443 ft | 223 kts | 263° |
| 2026-04-30 11:11 | 19.05318 | 72.76284 | 2875 ft | 228 kts | 263° |
| 2026-04-30 11:12 | 19.05078 | 72.74615 | 2989 ft | 229 kts | 263° |
| 2026-04-30 11:12 | 19.04851 | 72.73014 | 3005 ft | 229 kts | 265° |
| 2026-04-30 11:12 | 19.04878 | 72.71847 | 2998 ft | 227 kts | 282° |
| 2026-04-30 11:12 | 19.05567 | 72.70282 | 3003 ft | 228 kts | 309° |
| 2026-04-30 11:13 | 19.06840 | 72.69295 | 3006 ft | 230 kts | 336° |
| 2026-04-30 11:13 | 19.08473 | 72.69079 | 3005 ft | 235 kts | 6° |
| 2026-04-30 11:13 | 19.10038 | 72.69775 | 3005 ft | 242 kts | 36° |
| 2026-04-30 11:13 | 19.11094 | 72.71270 | 3007 ft | 248 kts | 64° |
| 2026-04-30 11:14 | 19.11733 | 72.73090 | 3008 ft | 248 kts | 70° |
| 2026-04-30 11:14 | 19.12296 | 72.74883 | 3010 ft | 249 kts | 70° |
| 2026-04-30 11:14 | 19.12848 | 72.76668 | 3009 ft | 248 kts | 70° |
| 2026-04-30 11:14 | 19.13233 | 72.77913 | 3010 ft | 246 kts | 70° |
| 2026-04-30 11:15 | 19.13813 | 72.79777 | 3019 ft | 242 kts | 70° |
| 2026-04-30 11:15 | 19.14354 | 72.81528 | 3007 ft | 243 kts | 70° |
| 2026-04-30 11:15 | 19.14897 | 72.83281 | 3005 ft | 242 kts | 70° |
| 2026-04-30 11:15 | 19.15453 | 72.85065 | 3006 ft | 241 kts | 70° |
| 2026-04-30 11:16 | 19.16003 | 72.86830 | 3000 ft | 232 kts | 70° |
| 2026-04-30 11:16 | 19.16506 | 72.88476 | 3005 ft | 229 kts | 74° |
| 2026-04-30 11:16 | 19.16644 | 72.90172 | 3013 ft | 229 kts | 88° |
| 2026-04-30 11:16 | 19.16634 | 72.91340 | 3010 ft | 229 kts | 90° |
| 2026-04-30 11:17 | 19.16603 | 72.93013 | 3007 ft | 229 kts | 89° |
| 2026-04-30 11:17 | 19.16555 | 72.94765 | 3007 ft | 229 kts | 90° |
| 2026-04-30 11:17 | 19.16520 | 72.96477 | 3002 ft | 223 kts | 90° |
| 2026-04-30 11:17 | 19.16473 | 72.98181 | 3002 ft | 214 kts | 90° |
| 2026-04-30 11:18 | 19.16430 | 72.99822 | 3003 ft | 210 kts | 89° |
| 2026-04-30 11:18 | 19.16293 | 73.02993 | 3004 ft | 210 kts | 100° |
| 2026-04-30 11:18 | 19.15662 | 73.04395 | 3003 ft | 209 kts | 129° |
| 2026-04-30 11:19 | 19.14444 | 73.05277 | 3008 ft | 204 kts | 164° |
| 2026-04-30 11:19 | 19.13504 | 73.05486 | 3001 ft | 201 kts | 178° |
| 2026-04-30 11:19 | 19.12084 | 73.05360 | 3000 ft | 198 kts | 198° |
| 2026-04-30 11:19 | 19.10889 | 73.04798 | 2948 ft | 190 kts | 217° |
| 2026-04-30 11:20 | 19.09909 | 73.03851 | 2833 ft | 171 kts | 236° |
| 2026-04-30 11:20 | 19.09308 | 73.02728 | 2681 ft | 156 kts | 253° |
| 2026-04-30 11:20 | 19.09077 | 73.01633 | 2532 ft | 151 kts | 268° |
| 2026-04-30 11:20 | 19.09054 | 73.00462 | 2343 ft | 146 kts | 270° |
| 2026-04-30 11:21 | 19.09040 | 72.99374 | 2155 ft | 146 kts | 269° |
| 2026-04-30 11:21 | 19.09026 | 72.98305 | 1967 ft | 146 kts | 269° |
| 2026-04-30 11:21 | 19.09013 | 72.97223 | 1788 ft | 145 kts | 270° |
| 2026-04-30 11:21 | 19.08998 | 72.96145 | 1603 ft | 145 kts | 268° |
| 2026-04-30 11:22 | 19.08983 | 72.95066 | 1410 ft | 144 kts | 268° |
| 2026-04-30 11:22 | 19.08974 | 72.94349 | 1291 ft | 144 kts | 268° |
| 2026-04-30 11:22 | 19.08960 | 72.93289 | 1104 ft | 144 kts | 268° |
| 2026-04-30 11:22 | 19.08945 | 72.92196 | 911 ft | 144 kts | 267° |
| 2026-04-30 11:23 | 19.08930 | 72.91064 | 706 ft | 144 kts | 265° |
| 2026-04-30 11:23 | 19.08915 | 72.89979 | 523 ft | 143 kts | 263° |
| 2026-04-30 11:23 | 19.08896 | 72.87782 | 106 ft | 144 kts | 264° |
| 2026-04-30 11:24 | 19.08880 | 72.87045 | 66 ft | 134 kts | 263° |
| 2026-04-30 11:24 | 19.08858 | 72.86072 | 49 ft | 108 kts | 271° |
| 2026-04-30 11:24 | 19.08844 | 72.85435 | 50 ft | 54 kts | 268° |
| 2026-04-30 11:25 | 19.08864 | 72.85137 | 49 ft | 9 kts | 322° |
| 2026-04-30 11:25 | 19.08923 | 72.85124 | 50 ft | 8 kts | 358° |
| 2026-04-30 11:25 | 19.09006 | 72.85129 | 49 ft | 6 kts | 24° |
| 2026-04-30 11:26 | 19.09021 | 72.85298 | 49 ft | 13 kts | 89° |
| 2026-04-30 11:26 | 19.09022 | 72.85377 | 49 ft | 6 kts | 89° |
| 2026-04-30 11:26 | 19.09045 | 72.85402 | 49 ft | 5 kts | 21° |
| 2026-04-30 11:27 | 19.09075 | 72.85404 | 49 ft | 4 kts | 4° |
| 2026-04-30 11:27 | 19.09091 | 72.85420 | 47 ft | 2 kts | 69° |
| 2026-04-30 11:27 | 19.09091 | 72.85438 | 49 ft | 2 kts | 89° |
| 2026-04-30 11:27 | 19.09091 | 72.85462 | 49 ft | 7 kts | 89° |
| 2026-04-30 11:28 | 19.09124 | 72.85486 | 49 ft | 3 kts | 356° |
| 2026-04-30 11:28 | 19.09144 | 72.85486 | 46 ft | 2 kts | 0° |
| 2026-04-30 11:28 | 19.09156 | 72.85486 | 48 ft | 1 kts | 0° |
| 2026-04-30 11:29 | 19.09157 | 72.85486 | 49 ft | 0 kts | 0° |